sensor_id;sensor_type;location;lat;lon;timestamp;pressure;altitude;pressure_sealevel;temperature;humidity
75759;BME280;64371;47.566;19.086;2023-03-21T00:02:27;100413.28;;;10.34;67.99
75759;BME280;64371;47.566;19.086;2023-03-21T00:05:29;100420.44;;;10.29;68.26
75759;BME280;64371;47.566;19.086;2023-03-21T00:08:32;100418.84;;;10.28;68.20
75759;BME280;64371;47.566;19.086;2023-03-21T00:11:34;100419.09;;;10.31;68.12
75759;BME280;64371;47.566;19.086;2023-03-21T00:14:37;100416.16;;;10.38;68.00
75759;BME280;64371;47.566;19.086;2023-03-21T00:17:40;100416.22;;;10.28;68.05
75759;BME280;64371;47.566;19.086;2023-03-21T00:20:57;100413.13;;;10.21;68.94
75759;BME280;64371;47.566;19.086;2023-03-21T00:24:20;100402.63;;;10.11;69.29
75759;BME280;64371;47.566;19.086;2023-03-21T00:27:24;100407.88;;;10.11;69.34
75759;BME280;64371;47.566;19.086;2023-03-21T00:30:46;100408.72;;;10.06;69.76
75759;BME280;64371;47.566;19.086;2023-03-21T00:33:49;100397.69;;;9.99;70.08
75759;BME280;64371;47.566;19.086;2023-03-21T00:36:51;100399.53;;;9.98;69.30
75759;BME280;64371;47.566;19.086;2023-03-21T00:39:54;100394.09;;;9.85;70.07
75759;BME280;64371;47.566;19.086;2023-03-21T00:42:56;100390.97;;;9.78;70.46
75759;BME280;64371;47.566;19.086;2023-03-21T00:46:00;100387.53;;;9.82;70.10
75759;BME280;64371;47.566;19.086;2023-03-21T00:49:03;100384.66;;;9.74;70.60
75759;BME280;64371;47.566;19.086;2023-03-21T00:52:08;100389.41;;;9.72;70.63
75759;BME280;64371;47.566;19.086;2023-03-21T00:55:25;100385.47;;;9.69;70.44
75759;BME280;64371;47.566;19.086;2023-03-21T00:58:28;100383.94;;;9.63;70.94
75759;BME280;64371;47.566;19.086;2023-03-21T01:01:30;100381.00;;;9.70;71.21
75759;BME280;64371;47.566;19.086;2023-03-21T01:04:33;100385.25;;;9.66;71.08
75759;BME280;64371;47.566;19.086;2023-03-21T01:07:35;100383.94;;;9.63;70.90
75759;BME280;64371;47.566;19.086;2023-03-21T01:10:41;100385.03;;;9.52;71.68
75759;BME280;64371;47.566;19.086;2023-03-21T01:13:44;100380.31;;;9.54;71.64
75759;BME280;64371;47.566;19.086;2023-03-21T01:16:57;100372.47;;;9.44;71.71
75759;BME280;64371;47.566;19.086;2023-03-21T01:20:00;100367.47;;;9.38;71.95
75759;BME280;64371;47.566;19.086;2023-03-21T01:23:02;100369.06;;;9.39;71.97
75759;BME280;64371;47.566;19.086;2023-03-21T01:26:05;100372.75;;;9.32;71.88
75759;BME280;64371;47.566;19.086;2023-03-21T01:29:08;100366.47;;;9.28;72.42
75759;BME280;64371;47.566;19.086;2023-03-21T01:32:10;100364.34;;;9.35;72.28
75759;BME280;64371;47.566;19.086;2023-03-21T01:35:13;100369.63;;;9.30;72.13
75759;BME280;64371;47.566;19.086;2023-03-21T01:38:15;100366.22;;;9.30;72.40
75759;BME280;64371;47.566;19.086;2023-03-21T01:44:54;100373.22;;;9.45;71.33
75759;BME280;64371;47.566;19.086;2023-03-21T01:47:57;100375.59;;;9.51;71.64
75759;BME280;64371;47.566;19.086;2023-03-21T01:51:11;100373.97;;;9.55;71.78
75759;BME280;64371;47.566;19.086;2023-03-21T01:54:31;100364.22;;;9.61;70.71
75759;BME280;64371;47.566;19.086;2023-03-21T01:57:39;100364.19;;;9.66;70.57
75759;BME280;64371;47.566;19.086;2023-03-21T02:01:00;100371.84;;;9.62;70.72
75759;BME280;64371;47.566;19.086;2023-03-21T02:04:13;100376.88;;;9.59;70.78
75759;BME280;64371;47.566;19.086;2023-03-21T02:07:18;100371.13;;;9.52;71.18
75759;BME280;64371;47.566;19.086;2023-03-21T02:10:31;100370.56;;;9.50;71.20
75759;BME280;64371;47.566;19.086;2023-03-21T02:13:35;100370.31;;;9.56;71.06
75759;BME280;64371;47.566;19.086;2023-03-21T02:27:31;100365.34;;;9.45;71.35
75759;BME280;64371;47.566;19.086;2023-03-21T02:30:43;100361.66;;;9.46;71.22
75759;BME280;64371;47.566;19.086;2023-03-21T02:34:04;100368.28;;;9.38;72.08
75759;BME280;64371;47.566;19.086;2023-03-21T02:37:38;100366.44;;;9.39;71.99
75759;BME280;64371;47.566;19.086;2023-03-21T02:44:43;100371.41;;;9.40;72.24
75759;BME280;64371;47.566;19.086;2023-03-21T02:48:12;100374.31;;;9.44;71.34
75759;BME280;64371;47.566;19.086;2023-03-21T02:51:33;100373.81;;;9.37;72.15
75759;BME280;64371;47.566;19.086;2023-03-21T02:54:37;100376.69;;;9.40;72.11
75759;BME280;64371;47.566;19.086;2023-03-21T02:57:55;100360.69;;;9.31;72.00
75759;BME280;64371;47.566;19.086;2023-03-21T03:01:03;100365.84;;;9.52;71.47
75759;BME280;64371;47.566;19.086;2023-03-21T03:04:24;100370.38;;;9.41;71.93
75759;BME280;64371;47.566;19.086;2023-03-21T03:07:44;100371.72;;;9.33;72.16
75759;BME280;64371;47.566;19.086;2023-03-21T03:21:49;100363.16;;;9.03;73.14
75759;BME280;64371;47.566;19.086;2023-03-21T03:25:03;100368.16;;;8.99;73.54
75759;BME280;64371;47.566;19.086;2023-03-21T03:28:30;100373.69;;;8.93;73.70
75759;BME280;64371;47.566;19.086;2023-03-21T03:31:47;100378.38;;;9.11;72.79
75759;BME280;64371;47.566;19.086;2023-03-21T03:34:54;100381.53;;;9.13;73.03
75759;BME280;64371;47.566;19.086;2023-03-21T03:38:05;100377.84;;;9.14;73.03
75759;BME280;64371;47.566;19.086;2023-03-21T03:41:17;100372.03;;;9.17;72.96
75759;BME280;64371;47.566;19.086;2023-03-21T03:44:26;100368.63;;;9.16;72.96
75759;BME280;64371;47.566;19.086;2023-03-21T03:47:41;100372.59;;;9.09;73.38
75759;BME280;64371;47.566;19.086;2023-03-21T03:54:45;100376.69;;;9.40;71.92
75759;BME280;64371;47.566;19.086;2023-03-21T03:57:48;100379.84;;;9.42;71.80
75759;BME280;64371;47.566;19.086;2023-03-21T04:00:54;100375.09;;;9.44;71.77
75759;BME280;64371;47.566;19.086;2023-03-21T04:03:57;100368.28;;;9.38;71.93
75759;BME280;64371;47.566;19.086;2023-03-21T04:07:14;100368.31;;;9.28;72.35
75759;BME280;64371;47.566;19.086;2023-03-21T04:10:18;100374.88;;;9.30;72.10
75759;BME280;64371;47.566;19.086;2023-03-21T04:13:22;100373.91;;;9.11;72.83
75759;BME280;64371;47.566;19.086;2023-03-21T04:16:42;100378.44;;;8.96;73.22
75759;BME280;64371;47.566;19.086;2023-03-21T04:19:44;100372.34;;;9.05;73.41
75759;BME280;64371;47.566;19.086;2023-03-21T04:22:47;100375.22;;;9.04;73.36
75759;BME280;64371;47.566;19.086;2023-03-21T04:25:50;100372.56;;;9.14;73.11
75759;BME280;64371;47.566;19.086;2023-03-21T04:29:05;100369.94;;;9.14;72.99
75759;BME280;64371;47.566;19.086;2023-03-21T04:32:27;100374.69;;;9.12;73.07
75759;BME280;64371;47.566;19.086;2023-03-21T04:35:40;100376.00;;;9.14;73.00
75759;BME280;64371;47.566;19.086;2023-03-21T04:38:43;100379.16;;;9.06;73.81
75759;BME280;64371;47.566;19.086;2023-03-21T04:41:50;100374.44;;;9.08;73.25
75759;BME280;64371;47.566;19.086;2023-03-21T04:44:53;100366.31;;;9.05;73.78
75759;BME280;64371;47.566;19.086;2023-03-21T04:47:57;100369.50;;;8.87;73.96
75759;BME280;64371;47.566;19.086;2023-03-21T04:51:00;100375.03;;;8.85;74.32
75759;BME280;64371;47.566;19.086;2023-03-21T04:54:03;100370.81;;;8.84;74.46
75759;BME280;64371;47.566;19.086;2023-03-21T04:57:07;100375.00;;;8.90;74.09
75759;BME280;64371;47.566;19.086;2023-03-21T05:00:10;100380.00;;;8.92;74.50
75759;BME280;64371;47.566;19.086;2023-03-21T05:03:15;100386.00;;;9.17;73.38
75759;BME280;64371;47.566;19.086;2023-03-21T05:06:22;100373.84;;;9.26;72.98
75759;BME280;64371;47.566;19.086;2023-03-21T05:09:24;100370.13;;;9.38;72.40
75759;BME280;64371;47.566;19.086;2023-03-21T05:12:27;100381.81;;;9.70;71.45
75759;BME280;64371;47.566;19.086;2023-03-21T05:15:29;100383.06;;;9.83;70.84
75759;BME280;64371;47.566;19.086;2023-03-21T05:18:32;100379.16;;;9.75;71.53
75759;BME280;64371;47.566;19.086;2023-03-21T05:21:46;100387.41;;;10.02;69.69
75759;BME280;64371;47.566;19.086;2023-03-21T05:24:55;100380.09;;;9.94;70.41
75759;BME280;64371;47.566;19.086;2023-03-21T05:28:19;100385.53;;;10.03;70.34
75759;BME280;64371;47.566;19.086;2023-03-21T05:31:22;100390.28;;;10.06;69.76
75759;BME280;64371;47.566;19.086;2023-03-21T05:34:32;100391.63;;;9.98;70.29
75759;BME280;64371;47.566;19.086;2023-03-21T05:37:35;100392.41;;;10.04;70.47
75759;BME280;64371;47.566;19.086;2023-03-21T05:40:45;100402.81;;;10.58;68.82
75759;BME280;64371;47.566;19.086;2023-03-21T05:43:48;100395.53;;;10.74;68.08
75759;BME280;64371;47.566;19.086;2023-03-21T05:46:50;100395.75;;;10.53;68.45
75759;BME280;64371;47.566;19.086;2023-03-21T05:49:56;100404.16;;;10.55;68.26
75759;BME280;64371;47.566;19.086;2023-03-21T05:52:59;100400.34;;;10.66;68.02
75759;BME280;64371;47.566;19.086;2023-03-21T05:56:02;100399.84;;;10.64;68.10
75759;BME280;64371;47.566;19.086;2023-03-21T05:59:34;100404.00;;;10.71;68.19
75759;BME280;64371;47.566;19.086;2023-03-21T06:02:38;100407.25;;;10.91;67.37
75759;BME280;64371;47.566;19.086;2023-03-21T06:05:46;100408.19;;;11.00;67.06
75759;BME280;64371;47.566;19.086;2023-03-21T06:08:55;100407.34;;;11.05;66.92
75759;BME280;64371;47.566;19.086;2023-03-21T06:11:58;100408.09;;;10.87;67.69
75759;BME280;64371;47.566;19.086;2023-03-21T06:15:14;100406.13;;;10.97;66.35
75759;BME280;64371;47.566;19.086;2023-03-21T06:18:46;100404.50;;;11.01;66.59
75759;BME280;64371;47.566;19.086;2023-03-21T06:22:13;100408.84;;;10.92;67.45
75759;BME280;64371;47.566;19.086;2023-03-21T06:25:16;100398.19;;;10.97;66.73
75759;BME280;64371;47.566;19.086;2023-03-21T06:28:21;100408.84;;;11.16;66.14
75759;BME280;64371;47.566;19.086;2023-03-21T06:31:24;100417.63;;;11.54;65.41
75759;BME280;64371;47.566;19.086;2023-03-21T06:34:34;100420.09;;;12.43;62.11
75759;BME280;64371;47.566;19.086;2023-03-21T06:37:37;100422.97;;;12.60;61.47
75759;BME280;64371;47.566;19.086;2023-03-21T06:40:40;100414.56;;;13.59;58.17
75759;BME280;64371;47.566;19.086;2023-03-21T06:43:43;100407.59;;;13.98;56.48
75759;BME280;64371;47.566;19.086;2023-03-21T06:46:46;100409.03;;;14.27;55.59
75759;BME280;64371;47.566;19.086;2023-03-21T06:49:52;100410.31;;;14.74;54.60
75759;BME280;64371;47.566;19.086;2023-03-21T06:52:54;100411.91;;;14.83;54.24
75759;BME280;64371;47.566;19.086;2023-03-21T06:55:58;100417.72;;;15.24;53.02
75759;BME280;64371;47.566;19.086;2023-03-21T06:59:01;100419.09;;;15.70;51.38
75759;BME280;64371;47.566;19.086;2023-03-21T07:02:22;100425.34;;;15.65;51.96
75759;BME280;64371;47.566;19.086;2023-03-21T07:05:39;100426.56;;;15.51;52.04
75759;BME280;64371;47.566;19.086;2023-03-21T07:08:42;100430.94;;;15.55;51.82
75759;BME280;64371;47.566;19.086;2023-03-21T07:11:44;100422.88;;;14.59;54.06
75759;BME280;64371;47.566;19.086;2023-03-21T07:14:48;100422.38;;;13.77;56.93
75759;BME280;64371;47.566;19.086;2023-03-21T07:17:51;100427.00;;;13.45;57.93
75759;BME280;64371;47.566;19.086;2023-03-21T07:20:54;100425.25;;;13.40;58.35
75759;BME280;64371;47.566;19.086;2023-03-21T07:23:57;100419.16;;;14.25;55.84
75759;BME280;64371;47.566;19.086;2023-03-21T07:26:59;100413.69;;;13.99;56.32
75759;BME280;64371;47.566;19.086;2023-03-21T07:30:05;100426.19;;;14.96;53.43
75759;BME280;64371;47.566;19.086;2023-03-21T07:33:08;100424.59;;;15.99;50.93
75759;BME280;64371;47.566;19.086;2023-03-21T07:36:12;100429.13;;;16.33;49.58
75759;BME280;64371;47.566;19.086;2023-03-21T07:39:16;100431.00;;;16.67;48.59
75759;BME280;64371;47.566;19.086;2023-03-21T07:42:21;100422.22;;;17.42;46.41
75759;BME280;64371;47.566;19.086;2023-03-21T07:45:23;100431.16;;;17.16;46.45
75759;BME280;64371;47.566;19.086;2023-03-21T07:48:29;100427.94;;;17.02;47.48
75759;BME280;64371;47.566;19.086;2023-03-21T07:51:35;100423.13;;;17.54;46.06
75759;BME280;64371;47.566;19.086;2023-03-21T07:54:38;100427.00;;;17.65;45.80
75759;BME280;64371;47.566;19.086;2023-03-21T07:57:40;100422.59;;;18.43;43.81
75759;BME280;64371;47.566;19.086;2023-03-21T08:00:45;100422.72;;;18.80;43.03
75759;BME280;64371;47.566;19.086;2023-03-21T08:03:47;100420.88;;;19.16;42.24
75759;BME280;64371;47.566;19.086;2023-03-21T08:06:52;100424.56;;;18.02;43.84
75759;BME280;64371;47.566;19.086;2023-03-21T08:09:55;100424.09;;;18.53;43.23
75759;BME280;64371;47.566;19.086;2023-03-21T08:12:57;100424.06;;;18.74;42.99
75759;BME280;64371;47.566;19.086;2023-03-21T08:16:00;100414.19;;;18.53;43.11
75759;BME280;64371;47.566;19.086;2023-03-21T08:19:03;100417.53;;;19.19;42.07
75759;BME280;64371;47.566;19.086;2023-03-21T08:22:06;100409.16;;;19.33;41.31
75759;BME280;64371;47.566;19.086;2023-03-21T08:25:10;100415.75;;;19.23;41.37
75759;BME280;64371;47.566;19.086;2023-03-21T08:28:14;100419.63;;;19.74;40.50
75759;BME280;64371;47.566;19.086;2023-03-21T08:31:17;100413.13;;;19.88;39.88
75759;BME280;64371;47.566;19.086;2023-03-21T08:34:19;100417.16;;;20.49;38.67
75759;BME280;64371;47.566;19.086;2023-03-21T08:37:24;100420.59;;;21.08;37.40
75759;BME280;64371;47.566;19.086;2023-03-21T08:40:27;100413.03;;;20.67;38.29
75759;BME280;64371;47.566;19.086;2023-03-21T08:43:29;100410.97;;;20.76;38.00
75759;BME280;64371;47.566;19.086;2023-03-21T08:46:32;100414.16;;;20.11;38.98
75759;BME280;64371;47.566;19.086;2023-03-21T08:49:35;100413.03;;;19.84;39.35
75759;BME280;64371;47.566;19.086;2023-03-21T08:52:37;100416.09;;;19.22;40.97
75759;BME280;64371;47.566;19.086;2023-03-21T08:55:40;100418.66;;;21.25;37.84
75759;BME280;64371;47.566;19.086;2023-03-21T08:58:43;100417.16;;;21.77;36.81
75759;BME280;64371;47.566;19.086;2023-03-21T09:01:45;100414.94;;;21.79;34.90
75759;BME280;64371;47.566;19.086;2023-03-21T09:04:48;100419.78;;;21.74;35.81
75759;BME280;64371;47.566;19.086;2023-03-21T09:07:51;100404.78;;;22.08;35.78
75759;BME280;64371;47.566;19.086;2023-03-21T09:10:54;100412.97;;;21.96;35.24
75759;BME280;64371;47.566;19.086;2023-03-21T09:13:57;100415.38;;;22.20;36.71
75759;BME280;64371;47.566;19.086;2023-03-21T09:17:00;100408.09;;;22.20;34.73
75759;BME280;64371;47.566;19.086;2023-03-21T09:20:02;100418.91;;;20.88;38.06
75759;BME280;64371;47.566;19.086;2023-03-21T09:23:13;100412.19;;;22.14;35.12
75759;BME280;64371;47.566;19.086;2023-03-21T09:26:20;100412.06;;;22.68;33.30
75759;BME280;64371;47.566;19.086;2023-03-21T09:29:25;100408.22;;;23.15;32.01
75759;BME280;64371;47.566;19.086;2023-03-21T09:32:28;100416.66;;;22.90;31.89
75759;BME280;64371;47.566;19.086;2023-03-21T09:35:31;100424.78;;;24.28;31.18
75759;BME280;64371;47.566;19.086;2023-03-21T09:38:34;100421.75;;;21.42;34.76
75759;BME280;64371;47.566;19.086;2023-03-21T09:45:12;100420.09;;;22.26;35.75
75759;BME280;64371;47.566;19.086;2023-03-21T09:48:30;100423.50;;;23.89;32.95
75759;BME280;64371;47.566;19.086;2023-03-21T09:51:43;100406.44;;;20.21;35.72
75759;BME280;64371;47.566;19.086;2023-03-21T09:54:54;100415.63;;;21.76;36.17
75759;BME280;64371;47.566;19.086;2023-03-21T09:58:18;100420.00;;;23.06;32.56
75759;BME280;64371;47.566;19.086;2023-03-21T10:01:29;100410.00;;;19.98;36.71
75759;BME280;64371;47.566;19.086;2023-03-21T10:04:35;100410.63;;;20.93;37.93
75759;BME280;64371;47.566;19.086;2023-03-21T10:07:45;100412.19;;;22.98;33.16
75759;BME280;64371;47.566;19.086;2023-03-21T10:10:50;100408.16;;;22.05;33.25
75759;BME280;64371;47.566;19.086;2023-03-21T10:13:57;100396.81;;;24.07;31.03
75759;BME280;64371;47.566;19.086;2023-03-21T10:20:25;100407.94;;;20.93;35.20
75759;BME280;64371;47.566;19.086;2023-03-21T10:23:28;100391.16;;;19.54;37.26
75759;BME280;64371;47.566;19.086;2023-03-21T10:26:31;100402.75;;;20.69;35.68
75759;BME280;64371;47.566;19.086;2023-03-21T10:29:40;100394.09;;;21.38;33.95
75759;BME280;64371;47.566;19.086;2023-03-21T10:32:44;100394.06;;;20.29;35.09
75759;BME280;64371;47.566;19.086;2023-03-21T10:35:59;100394.75;;;20.14;34.01
75759;BME280;64371;47.566;19.086;2023-03-21T10:39:07;100396.72;;;20.88;32.87
75759;BME280;64371;47.566;19.086;2023-03-21T10:42:21;100392.13;;;20.73;32.57
75759;BME280;64371;47.566;19.086;2023-03-21T10:45:25;100380.22;;;20.27;33.30
75759;BME280;64371;47.566;19.086;2023-03-21T10:48:34;100386.53;;;20.07;33.88
75759;BME280;64371;47.566;19.086;2023-03-21T10:51:38;100388.56;;;20.53;34.35
75759;BME280;64371;47.566;19.086;2023-03-21T10:54:40;100375.00;;;20.46;33.25
75759;BME280;64371;47.566;19.086;2023-03-21T10:57:45;100380.25;;;19.47;35.97
75759;BME280;64371;47.566;19.086;2023-03-21T11:00:56;100381.16;;;18.46;37.54
75759;BME280;64371;47.566;19.086;2023-03-21T11:04:04;100367.78;;;19.39;35.49
75759;BME280;64371;47.566;19.086;2023-03-21T11:07:12;100359.50;;;19.32;35.97
75759;BME280;64371;47.566;19.086;2023-03-21T11:10:27;100350.69;;;18.59;36.59
75759;BME280;64371;47.566;19.086;2023-03-21T11:13:36;100364.19;;;17.76;37.71
75759;BME280;64371;47.566;19.086;2023-03-21T11:16:42;100357.25;;;18.29;37.66
75759;BME280;64371;47.566;19.086;2023-03-21T11:19:57;100346.31;;;17.77;38.21
75759;BME280;64371;47.566;19.086;2023-03-21T11:23:01;100344.28;;;17.53;38.66
75759;BME280;64371;47.566;19.086;2023-03-21T11:26:09;100349.56;;;17.62;38.58
75759;BME280;64371;47.566;19.086;2023-03-21T11:29:39;100336.13;;;17.50;38.42
75759;BME280;64371;47.566;19.086;2023-03-21T11:32:50;100337.97;;;17.99;38.38
75759;BME280;64371;47.566;19.086;2023-03-21T11:39:31;100325.44;;;19.05;35.76
75759;BME280;64371;47.566;19.086;2023-03-21T11:42:48;100314.69;;;19.53;33.84
75759;BME280;64371;47.566;19.086;2023-03-21T11:46:01;100319.91;;;19.90;34.58
75759;BME280;64371;47.566;19.086;2023-03-21T11:49:07;100311.47;;;19.88;34.15
75759;BME280;64371;47.566;19.086;2023-03-21T11:52:24;100315.41;;;19.78;33.00
75759;BME280;64371;47.566;19.086;2023-03-21T12:02:24;100315.84;;;19.80;33.38
75759;BME280;64371;47.566;19.086;2023-03-21T12:11:58;100302.44;;;19.52;34.41
75759;BME280;64371;47.566;19.086;2023-03-21T12:15:18;100309.75;;;19.40;34.05
75759;BME280;64371;47.566;19.086;2023-03-21T12:25:46;100297.53;;;18.90;35.13
75759;BME280;64371;47.566;19.086;2023-03-21T12:41:44;100278.13;;;18.45;36.03
75759;BME280;64371;47.566;19.086;2023-03-21T12:44:55;100280.00;;;18.32;37.41
75759;BME280;64371;47.566;19.086;2023-03-21T12:48:19;100272.97;;;18.16;37.74
75759;BME280;64371;47.566;19.086;2023-03-21T12:51:28;100265.06;;;17.74;38.74
75759;BME280;64371;47.566;19.086;2023-03-21T12:54:40;100268.47;;;17.21;39.62
75759;BME280;64371;47.566;19.086;2023-03-21T12:57:59;100266.63;;;17.13;40.59
75759;BME280;64371;47.566;19.086;2023-03-21T13:01:04;100273.53;;;17.14;39.84
75759;BME280;64371;47.566;19.086;2023-03-21T13:04:24;100263.44;;;16.99;39.43
75759;BME280;64371;47.566;19.086;2023-03-21T13:07:32;100259.59;;;17.30;38.93
75759;BME280;64371;47.566;19.086;2023-03-21T13:10:39;100251.84;;;17.78;38.20
75759;BME280;64371;47.566;19.086;2023-03-21T13:13:47;100247.53;;;18.42;36.39
75759;BME280;64371;47.566;19.086;2023-03-21T13:20:15;100230.94;;;18.97;34.67
75759;BME280;64371;47.566;19.086;2023-03-21T13:23:22;100234.09;;;19.39;34.44
75759;BME280;64371;47.566;19.086;2023-03-21T13:26:54;100238.00;;;19.30;34.21
75759;BME280;64371;47.566;19.086;2023-03-21T13:29:59;100236.81;;;19.15;33.31
75759;BME280;64371;47.566;19.086;2023-03-21T13:33:11;100230.19;;;18.73;34.00
75759;BME280;64371;47.566;19.086;2023-03-21T13:36:22;100220.06;;;18.90;33.44
75759;BME280;64371;47.566;19.086;2023-03-21T13:39:28;100227.84;;;18.95;34.22
75759;BME280;64371;47.566;19.086;2023-03-21T13:42:32;100230.06;;;19.05;34.09
75759;BME280;64371;47.566;19.086;2023-03-21T13:45:46;100231.66;;;19.22;33.98
75759;BME280;64371;47.566;19.086;2023-03-21T13:52:24;100222.06;;;18.45;35.76
75759;BME280;64371;47.566;19.086;2023-03-21T13:55:29;100206.47;;;17.99;36.35
75759;BME280;64371;47.566;19.086;2023-03-21T13:58:43;100212.69;;;18.15;36.22
75759;BME280;64371;47.566;19.086;2023-03-21T14:05:26;100213.63;;;18.19;35.49
75759;BME280;64371;47.566;19.086;2023-03-21T14:08:29;100211.16;;;18.14;35.20
75759;BME280;64371;47.566;19.086;2023-03-21T14:11:39;100205.34;;;18.00;33.88
75759;BME280;64371;47.566;19.086;2023-03-21T14:15:00;100197.47;;;18.15;34.04
75759;BME280;64371;47.566;19.086;2023-03-21T14:18:22;100198.94;;;18.37;33.97
75759;BME280;64371;47.566;19.086;2023-03-21T14:21:36;100188.63;;;18.60;33.89
75759;BME280;64371;47.566;19.086;2023-03-21T14:24:38;100187.16;;;18.38;33.92
75759;BME280;64371;47.566;19.086;2023-03-21T14:27:45;100184.16;;;18.51;33.77
75759;BME280;64371;47.566;19.086;2023-03-21T14:30:54;100173.91;;;18.66;34.04
75759;BME280;64371;47.566;19.086;2023-03-21T14:33:58;100164.13;;;18.45;35.19
75759;BME280;64371;47.566;19.086;2023-03-21T14:37:06;100176.34;;;18.22;36.00
75759;BME280;64371;47.566;19.086;2023-03-21T14:40:21;100172.03;;;18.42;35.92
75759;BME280;64371;47.566;19.086;2023-03-21T14:43:24;100167.25;;;18.60;35.13
75759;BME280;64371;47.566;19.086;2023-03-21T14:46:27;100163.25;;;18.53;35.48
75759;BME280;64371;47.566;19.086;2023-03-21T14:49:32;100172.38;;;18.52;35.57
75759;BME280;64371;47.566;19.086;2023-03-21T14:52:34;100173.69;;;18.34;35.82
75759;BME280;64371;47.566;19.086;2023-03-21T14:55:46;100174.16;;;18.48;35.50
75759;BME280;64371;47.566;19.086;2023-03-21T14:58:52;100171.59;;;18.40;35.93
75759;BME280;64371;47.566;19.086;2023-03-21T15:01:55;100170.69;;;18.36;35.27
75759;BME280;64371;47.566;19.086;2023-03-21T15:05:06;100164.03;;;18.18;34.91
75759;BME280;64371;47.566;19.086;2023-03-21T15:11:13;100166.09;;;19.68;35.70
75759;BME280;64371;47.566;19.086;2023-03-21T15:14:18;100168.75;;;20.27;32.88
75759;BME280;64371;47.566;19.086;2023-03-21T15:17:22;100172.34;;;19.88;36.29
75759;BME280;64371;47.566;19.086;2023-03-21T15:20:29;100165.75;;;20.47;33.97
75759;BME280;64371;47.566;19.086;2023-03-21T15:23:37;100167.06;;;20.38;33.90
75759;BME280;64371;47.566;19.086;2023-03-21T15:26:45;100167.16;;;20.41;34.09
75759;BME280;64371;47.566;19.086;2023-03-21T15:29:50;100170.09;;;19.90;35.46
75759;BME280;64371;47.566;19.086;2023-03-21T15:32:56;100153.00;;;20.10;33.53
75759;BME280;64371;47.566;19.086;2023-03-21T15:35:59;100160.78;;;19.99;34.80
75759;BME280;64371;47.566;19.086;2023-03-21T15:39:13;100161.00;;;19.07;36.13
75759;BME280;64371;47.566;19.086;2023-03-21T15:42:28;100166.66;;;19.46;35.09
75759;BME280;64371;47.566;19.086;2023-03-21T15:45:30;100162.44;;;18.65;36.92
75759;BME280;64371;47.566;19.086;2023-03-21T15:48:33;100156.59;;;19.55;35.89
75759;BME280;64371;47.566;19.086;2023-03-21T15:51:36;100158.41;;;19.23;35.42
75759;BME280;64371;47.566;19.086;2023-03-21T15:54:47;100160.19;;;18.91;35.55
75759;BME280;64371;47.566;19.086;2023-03-21T15:58:02;100159.00;;;17.92;38.80
75759;BME280;64371;47.566;19.086;2023-03-21T16:01:11;100152.63;;;17.07;39.01
75759;BME280;64371;47.566;19.086;2023-03-21T16:04:16;100163.78;;;17.54;38.80
75759;BME280;64371;47.566;19.086;2023-03-21T16:07:23;100157.94;;;16.86;40.02
75759;BME280;64371;47.566;19.086;2023-03-21T16:10:34;100157.66;;;17.41;39.87
75759;BME280;64371;47.566;19.086;2023-03-21T16:13:40;100164.06;;;17.07;38.56
75759;BME280;64371;47.566;19.086;2023-03-21T16:16:43;100164.75;;;16.17;40.84
75759;BME280;64371;47.566;19.086;2023-03-21T16:19:46;100170.19;;;15.82;41.75
75759;BME280;64371;47.566;19.086;2023-03-21T16:22:49;100166.31;;;15.63;42.34
75759;BME280;64371;47.566;19.086;2023-03-21T16:25:52;100169.19;;;15.49;42.90
75759;BME280;64371;47.566;19.086;2023-03-21T16:28:58;100166.19;;;15.34;43.51
75759;BME280;64371;47.566;19.086;2023-03-21T16:32:01;100173.06;;;15.26;43.84
75759;BME280;64371;47.566;19.086;2023-03-21T16:35:07;100169.78;;;15.12;43.99
75759;BME280;64371;47.566;19.086;2023-03-21T16:38:11;100176.50;;;15.01;44.39
75759;BME280;64371;47.566;19.086;2023-03-21T16:41:14;100183.69;;;14.92;45.01
75759;BME280;64371;47.566;19.086;2023-03-21T16:44:18;100178.06;;;14.85;45.15
75759;BME280;64371;47.566;19.086;2023-03-21T16:47:21;100184.75;;;14.74;45.70
75759;BME280;64371;47.566;19.086;2023-03-21T16:53:33;100196.44;;;14.64;45.71
75759;BME280;64371;47.566;19.086;2023-03-21T16:56:38;100191.59;;;14.57;45.45
75759;BME280;64371;47.566;19.086;2023-03-21T16:59:41;100197.31;;;14.42;46.11
75759;BME280;64371;47.566;19.086;2023-03-21T17:02:43;100196.81;;;14.32;46.15
75759;BME280;64371;47.566;19.086;2023-03-21T17:05:46;100194.25;;;14.27;46.10
75759;BME280;64371;47.566;19.086;2023-03-21T17:08:49;100202.50;;;14.17;46.42
75759;BME280;64371;47.566;19.086;2023-03-21T17:11:52;100203.25;;;14.09;46.78
75759;BME280;64371;47.566;19.086;2023-03-21T17:14:54;100203.50;;;13.98;46.51
75759;BME280;64371;47.566;19.086;2023-03-21T17:17:56;100203.16;;;13.91;46.98
75759;BME280;64371;47.566;19.086;2023-03-21T17:20:59;100206.59;;;13.92;47.17
75759;BME280;64371;47.566;19.086;2023-03-21T17:24:01;100218.09;;;13.87;47.08
75759;BME280;64371;47.566;19.086;2023-03-21T17:27:06;100218.84;;;13.79;47.28
75759;BME280;64371;47.566;19.086;2023-03-21T17:30:32;100211.56;;;13.63;48.05
75759;BME280;64371;47.566;19.086;2023-03-21T17:33:35;100204.75;;;13.48;48.33
75759;BME280;64371;47.566;19.086;2023-03-21T17:36:39;100212.88;;;13.52;48.32
75759;BME280;64371;47.566;19.086;2023-03-21T17:39:43;100216.91;;;13.49;48.34
75759;BME280;64371;47.566;19.086;2023-03-21T17:42:48;100212.16;;;13.38;48.82
75759;BME280;64371;47.566;19.086;2023-03-21T17:45:50;100211.19;;;13.34;48.88